createdAt,value
2019-02-21T00:02:21.389Z,26.02
2019-02-21T00:04:51.133Z,22.13
2019-02-21T00:07:42.021Z,21.93
2019-02-21T00:10:11.666Z,23.50
2019-02-21T00:12:43.770Z,21.87
2019-02-21T00:15:13.818Z,19.27
2019-02-21T00:17:43.861Z,21.03
2019-02-21T00:20:14.580Z,20.37
2019-02-21T00:22:47.835Z,19.13
2019-02-21T00:25:20.122Z,21.73
2019-02-21T00:27:50.669Z,22.07
2019-02-21T00:30:20.288Z,26.13
2019-02-21T00:32:49.836Z,22.17
2019-02-21T00:35:22.267Z,25.90
2019-02-21T00:37:51.686Z,24.53
2019-02-21T00:40:21.532Z,23.77
2019-02-21T00:42:50.913Z,20.00
2019-02-21T00:45:23.186Z,19.93
2019-02-21T00:47:52.926Z,22.40
2019-02-21T00:50:22.418Z,20.23
2019-02-21T00:53:06.275Z,26.73
2019-02-21T00:55:44.257Z,21.23
2019-02-21T00:58:13.772Z,23.47
2019-02-21T01:00:46.745Z,25.83
2019-02-21T01:03:18.998Z,22.53
2019-02-21T01:05:48.724Z,26.73
2019-02-21T01:08:18.141Z,21.07
2019-02-21T01:10:47.646Z,23.53
2019-02-21T01:13:17.369Z,21.80
2019-02-21T01:15:46.891Z,24.87
2019-02-21T01:18:16.286Z,27.73
2019-02-21T01:20:45.645Z,26.77
2019-02-21T01:23:15.721Z,20.37
2019-02-21T01:25:45.495Z,20.17
2019-02-21T01:28:15.373Z,23.17
2019-02-21T01:30:44.948Z,24.53
2019-02-21T01:33:15.009Z,22.17
2019-02-21T01:35:44.688Z,20.13
2019-02-21T01:38:14.053Z,21.63
2019-02-21T01:40:43.474Z,19.97
2019-02-21T01:43:13.156Z,20.53
2019-02-21T01:45:42.613Z,22.07
2019-02-21T01:48:12.013Z,22.17
2019-02-21T01:50:41.544Z,22.50
2019-02-21T01:53:10.961Z,21.53
2019-02-21T01:55:40.868Z,19.60
2019-02-21T01:58:11.649Z,22.07
2019-02-21T02:00:41.709Z,24.47
2019-02-21T02:03:11.418Z,21.13
2019-02-21T02:05:40.851Z,23.83
2019-02-21T02:08:13.324Z,22.47
2019-02-21T02:10:43.007Z,20.17
2019-02-21T02:13:24.119Z,22.03
2019-02-21T02:15:44.211Z,21.87
2019-02-21T02:18:14.116Z,20.90
2019-02-21T02:20:43.950Z,23.03
2019-02-21T02:23:13.538Z,25.90
2019-02-21T02:25:43.032Z,24.27
2019-02-21T02:28:14.130Z,26.67
2019-02-21T02:30:44.254Z,27.27
2019-02-21T02:33:13.759Z,24.30
2019-02-21T02:35:43.222Z,21.30
2019-02-21T02:38:12.626Z,24.80
2019-02-21T02:40:42.109Z,25.23
2019-02-21T02:43:11.546Z,29.53
2019-02-21T02:45:41.483Z,24.37
2019-02-21T02:48:11.295Z,22.83
2019-02-21T02:50:40.993Z,24.77
2019-02-21T02:53:10.353Z,22.73
2019-02-21T02:55:40.188Z,24.80
2019-02-21T02:58:09.573Z,25.10
2019-02-21T03:00:39.026Z,27.70
2019-02-21T03:03:08.754Z,27.17
2019-02-21T03:05:38.255Z,26.83
2019-02-21T03:08:11.212Z,24.57
2019-02-21T03:10:42.868Z,26.43
2019-02-21T03:13:17.125Z,24.67
2019-02-21T03:15:46.610Z,28.80
2019-02-21T03:18:27.015Z,28.67
2019-02-21T03:20:58.158Z,28.10
2019-02-21T03:23:27.600Z,25.33
2019-02-21T03:25:57.069Z,33.93
2019-02-21T03:28:26.541Z,28.83
2019-02-21T03:30:55.981Z,29.37
2019-02-21T03:33:35.257Z,33.90
2019-02-21T03:36:05.368Z,25.63
2019-02-21T03:38:35.551Z,27.37
2019-02-21T03:41:55.032Z,33.20
2019-02-21T03:44:24.767Z,33.03
2019-02-21T03:46:54.521Z,26.10
2019-02-21T03:49:24.531Z,32.23
2019-02-21T03:51:54.048Z,26.83
2019-02-21T03:54:23.853Z,31.43
2019-02-21T03:56:53.258Z,28.53
2019-02-21T03:59:22.960Z,31.87
2019-02-21T04:02:04.104Z,35.50
2019-02-21T04:04:23.485Z,33.10
2019-02-21T04:06:52.913Z,34.00
2019-02-21T04:09:22.930Z,35.13
2019-02-21T04:11:52.271Z,37.90
2019-02-21T04:14:22.001Z,36.37
2019-02-21T04:16:51.612Z,36.27
2019-02-21T04:19:20.964Z,33.10
2019-02-21T04:21:50.558Z,32.80
2019-02-21T04:24:20.051Z,33.40
2019-02-21T04:26:49.443Z,33.60
2019-02-21T04:29:18.924Z,38.47
2019-02-21T04:31:48.356Z,32.90
2019-02-21T04:34:17.836Z,31.70
2019-02-21T04:36:48.011Z,35.97
2019-02-21T04:39:18.269Z,38.25
2019-02-21T04:41:47.696Z,38.02
2019-02-21T04:44:17.086Z,31.03
2019-02-21T04:46:46.936Z,37.97
2019-02-21T04:49:16.396Z,34.27
2019-02-21T04:51:45.831Z,40.30
2019-02-21T04:54:15.157Z,37.07
2019-02-21T04:56:44.930Z,35.73
2019-02-21T04:59:14.334Z,35.57
2019-02-21T05:01:43.782Z,33.77
2019-02-21T05:04:13.148Z,36.03
2019-02-21T05:06:43.172Z,43.53
2019-02-21T05:09:12.499Z,35.87
2019-02-21T05:11:42.152Z,39.23
2019-02-21T05:14:11.601Z,39.90
2019-02-21T05:16:41.133Z,37.57
2019-02-21T05:19:11.007Z,41.77
2019-02-21T05:21:40.826Z,38.50
2019-02-21T05:24:10.213Z,39.27
2019-02-21T05:26:46.892Z,41.27
2019-02-21T05:29:16.540Z,42.43
2019-02-21T05:32:05.066Z,41.60
2019-02-21T05:34:59.430Z,40.30
2019-02-21T05:37:37.826Z,44.43
2019-02-21T05:40:17.607Z,48.43
2019-02-21T05:43:04.604Z,52.57
2019-02-21T05:45:42.662Z,39.87
2019-02-21T05:48:23.756Z,45.97
2019-02-21T05:51:18.288Z,46.90
2019-02-21T05:54:07.965Z,43.83
2019-02-21T05:56:58.377Z,51.53
2019-02-21T05:59:48.701Z,52.93
2019-02-21T06:02:52.522Z,51.07
2019-02-21T06:05:24.977Z,48.17
2019-02-21T06:08:17.823Z,53.77
2019-02-21T06:11:11.752Z,56.07
2019-02-21T06:13:58.508Z,57.43
2019-02-21T06:16:35.813Z,58.43
2019-02-21T06:19:24.073Z,49.67
2019-02-21T06:22:11.430Z,60.97
2019-02-21T06:25:17.578Z,55.23
2019-02-21T06:28:01.129Z,58.40
2019-02-21T06:30:52.376Z,64.80
2019-02-21T06:33:21.886Z,58.97
2019-02-21T06:35:51.902Z,56.00
2019-02-21T06:38:23.471Z,60.00
2019-02-21T06:40:52.863Z,59.60
2019-02-21T06:43:22.558Z,56.83
2019-02-21T06:45:57.936Z,53.50
2019-02-21T06:48:26.915Z,57.97
2019-02-21T06:50:56.293Z,50.70
2019-02-21T06:53:28.331Z,54.73
2019-02-21T06:55:57.750Z,56.67
2019-02-21T06:58:28.165Z,55.80
2019-02-21T07:00:58.338Z,50.63
2019-02-21T07:03:29.042Z,52.00
2019-02-21T07:05:58.985Z,50.07
2019-02-21T07:08:28.377Z,52.23
2019-02-21T07:11:05.861Z,54.13
2019-02-21T07:13:28.805Z,55.10
2019-02-21T07:15:59.206Z,63.33
2019-02-21T07:18:29.981Z,59.47
2019-02-21T07:20:59.666Z,49.10
2019-02-21T07:23:35.797Z,55.77
2019-02-21T07:26:04.697Z,57.13
2019-02-21T07:28:34.491Z,57.67
2019-02-21T07:31:05.027Z,62.80
2019-02-21T07:33:34.424Z,52.40
2019-02-21T07:36:05.117Z,53.67
2019-02-21T07:38:34.570Z,50.07
2019-02-21T07:41:04.119Z,53.73
2019-02-21T07:43:33.640Z,48.40
2019-02-21T07:46:06.956Z,57.90
2019-02-21T07:48:37.005Z,61.00
2019-02-21T07:51:06.483Z,64.80
2019-02-21T07:53:36.067Z,61.47
2019-02-21T07:56:07.629Z,61.90
2019-02-21T07:58:39.545Z,51.80
2019-02-21T08:01:08.424Z,53.93
2019-02-21T08:03:44.964Z,50.80
2019-02-21T08:06:08.986Z,51.23
2019-02-21T08:08:38.374Z,55.13
2019-02-21T08:11:08.377Z,50.87
2019-02-21T08:13:37.961Z,48.23
2019-02-21T08:16:12.367Z,53.17
2019-02-21T08:18:41.262Z,53.90
2019-02-21T08:21:11.013Z,50.03
2019-02-21T08:23:50.156Z,50.17
2019-02-21T08:26:11.654Z,48.93
2019-02-21T08:28:41.168Z,59.17
2019-02-21T08:31:10.497Z,48.53
2019-02-21T08:33:57.950Z,47.20
2019-02-21T08:36:18.797Z,49.23
2019-02-21T08:38:48.282Z,49.83
2019-02-21T08:41:17.703Z,46.97
2019-02-21T08:43:47.168Z,48.40
2019-02-21T08:46:19.518Z,53.97
2019-02-21T08:48:48.894Z,48.23
2019-02-21T08:51:18.533Z,47.30
2019-02-21T08:53:48.328Z,45.90
2019-02-21T08:56:17.764Z,46.53
2019-02-21T08:58:47.176Z,52.40
2019-02-21T09:01:16.664Z,50.80
2019-02-21T09:03:46.017Z,47.93
2019-02-21T09:06:15.408Z,43.00
2019-02-21T09:08:44.895Z,50.43
2019-02-21T09:11:14.310Z,53.87
2019-02-21T09:13:46.172Z,46.70
2019-02-21T09:16:17.811Z,48.70
2019-02-21T09:18:47.085Z,45.17
2019-02-21T09:21:16.594Z,48.20
2019-02-21T09:23:49.090Z,49.13
2019-02-21T09:26:21.533Z,46.87
2019-02-21T09:28:50.155Z,49.97
2019-02-21T09:31:19.649Z,49.57
2019-02-21T09:33:49.058Z,47.30
2019-02-21T09:36:18.996Z,55.77
2019-02-21T09:38:48.426Z,52.00
2019-02-21T09:41:17.880Z,51.90
2019-02-21T09:43:47.552Z,49.17
2019-02-21T09:46:17.045Z,49.80
2019-02-21T09:48:46.558Z,50.57
2019-02-21T09:51:18.197Z,52.13
2019-02-21T09:53:47.317Z,47.50
2019-02-21T09:56:16.813Z,48.73
2019-02-21T09:58:46.216Z,50.90
2019-02-21T10:01:15.592Z,44.67
2019-02-21T10:03:47.086Z,46.60
2019-02-21T10:06:16.299Z,51.03
2019-02-21T10:08:45.981Z,51.60
2019-02-21T10:11:15.448Z,52.33
2019-02-21T10:13:45.196Z,45.83
2019-02-21T10:16:14.687Z,40.53
2019-02-21T10:18:44.136Z,46.87
2019-02-21T10:21:14.445Z,46.00
2019-02-21T10:23:43.790Z,49.10
2019-02-21T10:26:13.369Z,47.67
2019-02-21T10:28:45.028Z,44.03
2019-02-21T10:31:14.118Z,48.00
2019-02-21T10:33:46.966Z,50.23
2019-02-21T10:36:14.810Z,47.83
2019-02-21T10:38:44.289Z,48.67
2019-02-21T10:41:13.774Z,47.13
2019-02-21T10:43:43.613Z,54.97
2019-02-21T10:46:13.087Z,46.57
2019-02-21T10:48:42.848Z,41.00
2019-02-21T10:51:12.242Z,44.37
2019-02-21T10:53:41.601Z,43.97
2019-02-21T10:56:11.044Z,37.77
2019-02-21T10:58:43.455Z,39.50
2019-02-21T11:01:12.967Z,40.37
2019-02-21T11:03:42.430Z,36.10
2019-02-21T11:06:11.946Z,32.50
2019-02-21T11:08:41.418Z,34.80
2019-02-21T11:11:10.924Z,29.47
2019-02-21T11:13:40.458Z,30.93
2019-02-21T11:16:09.920Z,33.93
2019-02-21T11:18:39.419Z,33.03
2019-02-21T11:21:09.007Z,31.80
2019-02-21T11:23:38.430Z,32.47
2019-02-21T11:26:10.585Z,26.93
2019-02-21T11:28:42.338Z,25.93
2019-02-21T11:31:11.763Z,33.75
2019-02-21T11:33:41.099Z,27.50
2019-02-21T11:36:12.149Z,25.20
2019-02-21T11:38:41.591Z,29.07
2019-02-21T11:41:11.050Z,24.87
2019-02-21T11:43:40.521Z,25.27
2019-02-21T11:46:10.164Z,25.13
2019-02-21T11:48:39.643Z,31.20
2019-02-21T11:51:09.264Z,26.60
2019-02-21T11:53:38.767Z,25.57
2019-02-21T11:56:08.441Z,27.00
2019-02-21T11:58:37.901Z,31.63
2019-02-21T12:01:10.214Z,25.43
2019-02-21T12:03:40.176Z,29.03
2019-02-21T12:06:13.162Z,26.70
2019-02-21T12:08:42.805Z,31.03
2019-02-21T12:11:12.169Z,24.83
2019-02-21T12:13:41.691Z,24.10
2019-02-21T12:16:11.240Z,31.53
2019-02-21T12:18:40.707Z,25.93
2019-02-21T12:21:10.167Z,27.97
2019-02-21T12:23:40.563Z,23.97
2019-02-21T12:26:09.986Z,28.30
2019-02-21T12:28:40.582Z,27.17
2019-02-21T12:31:10.395Z,27.47
2019-02-21T12:33:39.994Z,37.47
2019-02-21T12:36:12.429Z,22.67
2019-02-21T12:38:42.498Z,19.43
2019-02-21T12:41:11.971Z,21.77
2019-02-21T12:43:41.702Z,23.30
2019-02-21T12:46:11.367Z,23.63
2019-02-21T12:48:40.733Z,28.03
2019-02-21T12:51:10.481Z,24.77
2019-02-21T12:53:40.004Z,29.47
2019-02-21T12:56:12.815Z,20.87
2019-02-21T12:58:45.195Z,22.20
2019-02-21T13:01:14.044Z,23.73
2019-02-21T13:03:43.791Z,29.00
2019-02-21T13:06:13.450Z,23.87
2019-02-21T13:08:42.892Z,23.73
2019-02-21T13:11:12.470Z,31.97
2019-02-21T13:13:42.425Z,22.90
2019-02-21T13:16:14.742Z,27.33
2019-02-21T13:18:44.247Z,27.93
2019-02-21T13:21:14.733Z,27.77
2019-02-21T13:23:44.163Z,36.80
2019-02-21T13:26:13.664Z,32.17
2019-02-21T13:28:43.148Z,30.63
2019-02-21T13:31:12.575Z,30.20
2019-02-21T13:33:42.407Z,37.63
2019-02-21T13:36:15.807Z,41.80
2019-02-21T13:38:45.161Z,31.83
2019-02-21T13:41:14.749Z,32.93
2019-02-21T13:43:47.134Z,37.57
2019-02-21T13:46:16.727Z,34.20
2019-02-21T13:48:46.058Z,41.80
2019-02-21T13:51:15.408Z,38.30
2019-02-21T13:53:44.956Z,37.73
2019-02-21T13:56:14.320Z,42.17
2019-02-21T13:58:43.770Z,38.53
2019-02-21T14:01:14.499Z,38.57
2019-02-21T14:03:44.652Z,39.73
2019-02-21T14:06:14.415Z,41.93
2019-02-21T14:08:44.132Z,39.20
2019-02-21T14:11:13.551Z,40.93
2019-02-21T14:13:42.940Z,41.77
2019-02-21T14:16:15.053Z,41.47
2019-02-21T14:18:44.982Z,44.60
2019-02-21T14:21:14.430Z,43.17
2019-02-21T14:23:44.344Z,41.47
2019-02-21T14:26:13.746Z,44.43
2019-02-21T14:28:45.875Z,46.97
2019-02-21T14:31:15.291Z,37.27
2019-02-21T14:33:45.044Z,45.13
2019-02-21T14:36:19.274Z,43.97
2019-02-21T14:38:48.961Z,43.33
2019-02-21T14:41:18.359Z,42.73
2019-02-21T14:43:47.798Z,42.43
2019-02-21T14:46:17.270Z,47.50
2019-02-21T14:48:46.651Z,43.00
2019-02-21T14:51:16.466Z,47.20
2019-02-21T14:53:45.796Z,45.13
2019-02-21T14:56:15.158Z,41.67
2019-02-21T14:58:45.533Z,41.07
2019-02-21T15:01:15.267Z,38.60
2019-02-21T15:03:44.594Z,41.13
2019-02-21T15:06:14.265Z,50.60
2019-02-21T15:08:43.985Z,41.90
2019-02-21T15:11:13.695Z,40.93
2019-02-21T15:13:43.611Z,38.83
2019-02-21T15:16:15.760Z,43.67
2019-02-21T15:18:45.134Z,40.17
2019-02-21T15:21:15.059Z,37.67
2019-02-21T15:23:44.772Z,41.33
2019-02-21T15:26:14.177Z,42.57
2019-02-21T15:28:44.394Z,46.30
2019-02-21T15:31:13.804Z,44.27
2019-02-21T15:33:43.150Z,50.03
2019-02-21T15:36:17.049Z,38.53
2019-02-21T15:38:46.898Z,38.30
2019-02-21T15:41:16.299Z,41.47
2019-02-21T15:43:45.662Z,40.93
2019-02-21T15:46:15.189Z,46.90
2019-02-21T15:48:44.850Z,47.93
2019-02-21T15:51:14.678Z,43.30
2019-02-21T15:53:44.140Z,40.20
2019-02-21T15:56:14.590Z,38.37
2019-02-21T15:58:44.214Z,42.33
2019-02-21T16:01:14.373Z,47.30
2019-02-21T16:03:45.497Z,42.67
2019-02-21T16:06:17.057Z,40.67
2019-02-21T16:08:46.697Z,35.43
2019-02-21T16:11:18.802Z,43.87
2019-02-21T16:13:48.402Z,41.53
2019-02-21T16:16:20.226Z,44.63
2019-02-21T16:18:49.839Z,40.87
2019-02-21T16:21:19.253Z,37.93
2019-02-21T16:23:48.620Z,46.63
2019-02-21T16:26:18.083Z,36.20
2019-02-21T16:28:47.892Z,40.50
2019-02-21T16:31:18.252Z,43.50
2019-02-21T16:33:47.628Z,41.07
2019-02-21T16:36:17.244Z,36.43
2019-02-21T16:38:47.027Z,44.07
2019-02-21T16:41:16.941Z,46.43
2019-02-21T16:43:46.547Z,41.43
2019-02-21T16:46:16.281Z,38.33
2019-02-21T16:48:45.721Z,47.93
2019-02-21T16:51:15.112Z,44.60
2019-02-21T16:53:44.498Z,44.93
2019-02-21T16:56:16.174Z,45.37
2019-02-21T16:58:45.919Z,42.53
2019-02-21T17:01:15.289Z,38.23
2019-02-21T17:03:44.901Z,44.23
2019-02-21T17:06:17.049Z,44.53
2019-02-21T17:08:46.505Z,38.23
2019-02-21T17:11:16.223Z,38.43
2019-02-21T17:13:45.723Z,42.63
2019-02-21T17:16:15.182Z,47.10
2019-02-21T17:18:44.596Z,36.63
2019-02-21T17:21:15.400Z,36.63
2019-02-21T17:23:46.298Z,39.30
2019-02-21T17:26:18.406Z,50.23
2019-02-21T17:28:50.054Z,41.03
2019-02-21T17:31:22.543Z,43.50
2019-02-21T17:33:52.073Z,48.10
2019-02-21T17:36:21.466Z,36.83
2019-02-21T17:38:50.937Z,43.57
2019-02-21T17:41:20.458Z,45.77
2019-02-21T17:43:52.902Z,41.37
2019-02-21T17:46:22.333Z,41.93
2019-02-21T17:48:51.692Z,41.00
2019-02-21T17:51:21.167Z,45.13
2019-02-21T17:53:50.573Z,45.33
2019-02-21T17:56:20.128Z,40.90
2019-02-21T17:58:49.633Z,50.40
2019-02-21T18:01:19.094Z,43.33
2019-02-21T18:03:50.721Z,46.67
2019-02-21T18:06:22.085Z,49.27
2019-02-21T18:09:00.478Z,48.67
2019-02-21T18:11:46.439Z,40.70
2019-02-21T18:14:16.524Z,53.10
2019-02-21T18:16:59.118Z,45.40
2019-02-21T18:19:38.929Z,45.00
2019-02-21T18:23:33.825Z,39.00
2019-02-21T18:26:56.018Z,39.80
2019-02-21T18:29:43.713Z,41.67
2019-02-21T18:32:16.200Z,36.50
2019-02-21T18:34:49.442Z,45.30
2019-02-21T18:37:18.355Z,46.00
2019-02-21T18:39:48.006Z,50.73
2019-02-21T18:42:19.587Z,40.27
2019-02-21T18:44:49.241Z,38.37
2019-02-21T18:47:18.924Z,37.47
2019-02-21T18:49:56.792Z,38.77
2019-02-21T18:52:28.156Z,39.77
2019-02-21T18:55:09.949Z,40.73
2019-02-21T18:57:39.699Z,42.33
2019-02-21T19:00:22.051Z,38.10
2019-02-21T19:06:04.087Z,39.13
2019-02-21T19:08:36.933Z,36.03
2019-02-21T19:11:06.829Z,47.37
2019-02-21T19:13:36.478Z,36.33
2019-02-21T19:16:06.065Z,39.83
2019-02-21T19:18:35.743Z,51.23
2019-02-21T19:21:06.692Z,35.87
2019-02-21T19:23:36.327Z,36.03
2019-02-21T19:26:08.569Z,37.73
2019-02-21T19:28:41.090Z,47.10
2019-02-21T19:31:36.591Z,41.10
2019-02-21T19:34:07.756Z,47.45
2019-02-21T19:36:45.153Z,44.63
2019-02-21T19:39:15.525Z,41.87
2019-02-21T19:41:45.890Z,45.07
2019-02-21T19:44:18.504Z,41.53
2019-02-21T19:46:48.280Z,45.27
2019-02-21T19:49:19.369Z,46.50
2019-02-21T19:51:52.661Z,43.87
2019-02-21T19:54:22.414Z,35.73
2019-02-21T19:56:53.506Z,47.07
2019-02-21T19:59:24.902Z,38.73
2019-02-21T20:01:58.522Z,38.67
2019-02-21T20:04:28.288Z,41.57
2019-02-21T20:06:57.947Z,38.53
2019-02-21T20:09:28.379Z,48.90
2019-02-21T20:11:58.940Z,37.87
2019-02-21T20:14:29.164Z,47.70
2019-02-21T20:16:58.873Z,43.10
2019-02-21T20:19:50.002Z,47.00
2019-02-21T20:22:25.904Z,44.20
2019-02-21T20:24:55.550Z,49.70
2019-02-21T20:27:25.797Z,47.70
2019-02-21T20:29:58.510Z,43.80
2019-02-21T20:32:38.025Z,51.27
2019-02-21T20:35:10.028Z,45.90
2019-02-21T20:37:43.159Z,43.40
2019-02-21T20:40:17.824Z,46.13
2019-02-21T20:42:53.122Z,45.50
2019-02-21T20:45:24.827Z,46.23
2019-02-21T20:47:54.725Z,45.00
2019-02-21T20:50:30.918Z,45.40
2019-02-21T20:53:02.859Z,43.43
2019-02-21T20:55:43.068Z,61.40
2019-02-21T20:58:06.022Z,54.27
2019-02-21T21:00:41.634Z,45.70
2019-02-21T21:03:13.760Z,52.57
2019-02-21T21:05:44.126Z,59.23
2019-02-21T21:08:21.024Z,63.47
2019-02-21T21:10:56.930Z,55.13
2019-02-21T21:13:33.389Z,62.23
2019-02-21T21:16:15.680Z,64.77
2019-02-21T21:18:42.924Z,63.50
2019-02-21T21:21:32.800Z,70.97
2019-02-21T21:24:04.551Z,57.67
2019-02-21T21:26:36.698Z,67.20
2019-02-21T21:29:07.573Z,81.12
2019-02-21T21:31:44.666Z,68.80
2019-02-21T21:34:17.120Z,68.83
2019-02-21T21:36:50.027Z,75.23
2019-02-21T21:39:29.274Z,74.23
2019-02-21T21:41:59.273Z,74.67
2019-02-21T21:44:29.442Z,80.03
2019-02-21T21:47:01.152Z,70.53
2019-02-21T21:49:35.042Z,85.13
2019-02-21T21:52:04.780Z,80.53
2019-02-21T21:54:37.906Z,95.37
2019-02-21T21:57:07.362Z,81.23
2019-02-21T21:59:38.548Z,86.93
2019-02-21T22:02:17.684Z,80.43
2019-02-21T22:04:51.181Z,75.90
2019-02-21T22:07:23.069Z,90.70
2019-02-21T22:10:03.128Z,91.47
2019-02-21T22:12:32.741Z,95.50
2019-02-21T22:15:15.842Z,83.67
2019-02-21T22:17:45.527Z,84.13
2019-02-21T22:20:26.550Z,75.20
2019-02-21T22:22:58.642Z,78.00
2019-02-21T22:25:33.181Z,78.03
2019-02-21T22:28:05.687Z,80.53
2019-02-21T22:30:39.173Z,85.53
2019-02-21T22:33:29.050Z,77.93
2019-02-21T22:36:03.338Z,77.80
2019-02-21T22:38:56.365Z,87.90
2019-02-21T22:41:23.491Z,85.93
2019-02-21T22:46:50.802Z,90.67
2019-02-21T22:49:24.254Z,80.90
2019-02-21T22:51:55.797Z,89.07
2019-02-21T22:54:30.484Z,79.83
2019-02-21T22:57:00.197Z,80.47
2019-02-21T22:59:29.763Z,90.17
2019-02-21T23:02:04.762Z,85.43
2019-02-21T23:04:43.955Z,85.47
2019-02-21T23:07:54.659Z,74.83
2019-02-21T23:13:46.734Z,70.47
2019-02-21T23:16:25.135Z,62.93
2019-02-21T23:19:41.411Z,61.57
2019-02-21T23:22:13.679Z,56.90
2019-02-21T23:24:43.323Z,59.43
2019-02-21T23:27:12.776Z,59.70
2019-02-21T23:29:42.600Z,63.07
2019-02-21T23:32:12.293Z,67.80
2019-02-21T23:34:49.077Z,64.67
2019-02-21T23:37:25.043Z,58.80
2019-02-21T23:39:54.634Z,68.50
2019-02-21T23:42:25.212Z,62.80
2019-02-21T23:44:57.686Z,64.40
2019-02-21T23:47:27.311Z,65.93
2019-02-21T23:49:57.032Z,77.30
2019-02-21T23:52:27.463Z,65.23
2019-02-21T23:55:00.606Z,63.77
2019-02-21T23:57:33.950Z,63.43
